VYYY/RGN METAR and TAF weather

Enter ICAO airport designator
Station Type Date Time Source
VYYY METAR 2019/08/25 20:00 UTC NOAA

VYYY 252000Z 19003KT 7000 BKN015 FEW020CB BKN110 26/25 Q1006 TEMPO 5000 -RA


Station Type Date Time Source
VYYY Decoded METAR 2019/08/25 20:00 UTC NOAA

Station name not available
Aug 25, 2019 - 04:00 PM EDT / 2019.08.25 2000 UTC
Wind: from the S (190 degrees) at 3 MPH (3 KT):0
Visibility: 4 mile(s):0
Sky conditions: mostly cloudy
Weather: Cumulonimbus clouds observed
Temperature: 78 F (26 C)
Dew Point: 77 F (25 C)
Relative Humidity: 94%
Pressure (altimeter): 29.71 in. Hg (1006 hPa)
ob: VYYY 252000Z 19003KT 7000 BKN015 FEW020CB BKN110 26/25 Q1006 TEMPO 5000 -RA
cycle: 20

Station Type Date Time Source
VYYY TAF 2019/08/25 18:36 UTC NOAA

TAF TAF VYYY 251700Z 2518/2618 20006KT 7000 BKN018 FEW020CB BKN110
TEMPO 2518/2524 5000 -RA/-SHRA

Example: see airport list